Gleeson, Arizona
Current Conditions -  °F | °C
As of 11:56 PM on Wednesday 26 Nov 2014 (Local Time) from KDUG Reporting Station
Clear Clear  
Wind Chill: 36°   Ceiling: Unl
Heat Index: 36°   Visibility: 10mi
Dew Point: 17°   Wind: 3mph
Humidity: 46%   Direction: 100°E
Pressure: 30.31"   Gusts: NA
Location:  31.7341°N, 109.494°W
Report Text: KDUG 270656Z AUTO 10003KT 10SM CLR 02/M08 A3031 RMK AO2 SLP240 T00221083 402171056
Loading
Personal Weather Stations






























Interactive Weather Map New forecast layout! Learn more

10-Day Weather Forecast

Advertisements
Track Severe Weather on mobile